Terminal Aerodrome Forecast
Issued by NWS

Home | Current Version | Previous Version | Text Only | Print | Product List | Glossary On
Versions: 1 2 3 4 5 6 7 8 9 10 11 12 13
000
FTUS46 KMTR 232339
TAFSJC
TAF
KSJC 232339Z 2400/2424 30012KT P6SM SKC
     FM240300 28005KT P6SM SKC
     FM240700 VRB04KT P6SM SKC
     FM241700 32007KT P6SM FEW030 FEW050
     FM242100 31007KT P6SM FEW030 SCT050=

USA.gov is the U.S. government's official web portal to all federal, state and local government web resources and services.